Spicewood, Texas
Current Conditions -  °F | °C
As of 5:35 AM on Friday 31 Oct 2014 (Local Time) from KRYW Reporting Station
Broken Clouds Broken Clouds  
Wind Chill: 62°   Ceiling: 9000
Heat Index: 62°   Visibility: 10mi
Dew Point: 58°   Wind: 3mph
Humidity: 89%   Direction: 350°N
Pressure: 30.2"   Gusts: NA
Location:  30.48°N, 98.16°W
Report Text: KRYW 311035Z AUTO 35003KT 10SM BKN090 17/15 A3020 RMK AO2 T01650146
Loading
Personal Weather Stations






























Interactive Weather Map
Tropical Storm Tracking
New forecast layout! Learn more

10-Day Weather Forecast

Advertisements
Track Severe Weather on mobile